Time;durP1;ratioP1;P1;durP2;ratioP2;P2;SDS_P1;SDS_P2;PMS_P1;PMS_P2;Temp;Humidity;BMP_temperature;BMP_pressure;BME280_temperature;BME280_humidity;BME280_pressure;Samples;Min_cycle;Max_cycle;Signal;HPM_P1;HPM_P2
2021/07/10 00:00:58;;;;;;;4.65;3.70;;;18.80;99.90;;;;;;5070425;28;20206;-72
2021/07/10 00:03:25;;;;;;;3.45;3.15;;;18.80;99.90;;;;;;5070218;28;20576;-72
2021/07/10 00:05:52;;;;;;;7.10;3.80;;;18.70;99.90;;;;;;5070761;28;20251;-72
2021/07/10 00:08:19;;;;;;;6.25;3.15;;;18.70;99.90;;;;;;5070129;28;20291;-72
2021/07/10 00:10:45;;;;;;;4.38;3.38;;;18.60;99.90;;;;;;5070797;28;20202;-72
2021/07/10 00:13:14;;;;;;;4.65;3.25;;;18.50;99.90;;;;;;5070609;28;20585;-73
2021/07/10 00:15:41;;;;;;;5.93;3.65;;;18.50;99.90;;;;;;5070316;28;20210;-72
2021/07/10 00:18:08;;;;;;;3.13;2.90;;;18.40;99.90;;;;;;5069722;28;20733;-76
2021/07/10 00:20:35;;;;;;;5.20;3.35;;;18.30;99.90;;;;;;5070804;28;20271;-76
2021/07/10 00:23:02;;;;;;;3.60;3.28;;;18.40;99.90;;;;;;5070892;28;20206;-76
2021/07/10 00:25:29;;;;;;;3.08;2.75;;;18.50;99.90;;;;;;5056019;28;20267;-75
2021/07/10 00:27:56;;;;;;;3.83;3.42;;;18.50;99.90;;;;;;5070175;28;20233;-75
2021/07/10 00:30:24;;;;;;;4.15;3.50;;;18.50;99.90;;;;;;5069342;28;20711;-76
2021/07/10 00:32:52;;;;;;;5.35;3.50;;;18.40;99.90;;;;;;5070627;28;20210;-73
2021/07/10 00:35:19;;;;;;;6.90;3.22;;;18.40;99.90;;;;;;5069832;28;20202;-74
2021/07/10 00:37:47;;;;;;;7.57;3.95;;;18.40;99.90;;;;;;5072399;28;20211;-73
2021/07/10 00:40:14;;;;;;;7.55;4.25;;;18.40;99.90;;;;;;5093940;28;20744;-75
2021/07/10 00:42:42;;;;;;;4.20;3.85;;;18.40;99.90;;;;;;5094191;28;20259;-75
2021/07/10 00:45:12;;;;;;;5.22;4.05;;;18.30;99.90;;;;;;5093574;28;20205;-74
2021/07/10 00:47:43;;;;;;;5.95;5.13;;;18.30;99.90;;;;;;5094440;28;20221;-73
2021/07/10 00:50:13;;;;;;;5.32;4.82;;;18.20;99.90;;;;;;5093964;28;20193;-73
2021/07/10 00:52:40;;;;;;;6.38;4.50;;;18.10;99.90;;;;;;5094056;28;20718;-73
2021/07/10 00:55:09;;;;;;;7.53;4.63;;;18.20;99.90;;;;;;5094068;28;20282;-73
2021/07/10 00:57:37;;;;;;;4.13;3.75;;;18.10;99.90;;;;;;5094217;28;20258;-72
2021/07/10 01:00:08;;;;;;;5.97;5.00;;;18.00;99.90;;;;;;5094221;28;20205;-73
2021/07/10 01:02:35;;;;;;;6.32;4.40;;;17.90;99.90;;;;;;5094390;28;20278;-73
2021/07/10 01:05:07;;;;;;;5.93;3.28;;;17.90;99.90;;;;;;5094433;28;20205;-74
2021/07/10 01:07:34;;;;;;;4.90;4.00;;;17.90;99.90;;;;;;5094502;28;20217;-73
2021/07/10 01:10:02;;;;;;;4.18;3.42;;;17.90;99.90;;;;;;5093927;28;20210;-72
2021/07/10 01:12:30;;;;;;;3.55;3.25;;;18.00;99.90;;;;;;5093773;28;20239;-72
2021/07/10 01:14:57;;;;;;;5.25;4.63;;;18.00;99.90;;;;;;5093586;28;20909;-72
2021/07/10 01:17:24;;;;;;;5.47;3.45;;;18.10;99.90;;;;;;5093615;28;20258;-72
2021/07/10 01:19:58;;;;;;;4.95;4.38;;;18.10;99.90;;;;;;5093918;28;20258;-73
2021/07/10 01:22:27;;;;;;;4.90;4.30;;;18.10;99.90;;;;;;5093531;28;20201;-72
2021/07/10 01:24:54;;;;;;;4.95;4.40;;;18.10;99.90;;;;;;5093959;28;20300;-73
2021/07/10 01:27:21;;;;;;;6.70;3.97;;;18.00;99.90;;;;;;5093356;28;20205;-72
2021/07/10 01:29:49;;;;;;;5.15;4.25;;;18.00;99.90;;;;;;5093605;28;20205;-73
2021/07/10 01:32:17;;;;;;;7.60;4.40;;;17.90;99.90;;;;;;5093050;28;20677;-73
2021/07/10 01:34:46;;;;;;;5.10;4.60;;;17.90;99.90;;;;;;5093591;28;20243;-73
2021/07/10 01:37:14;;;;;;;6.38;3.88;;;17.90;99.90;;;;;;5093077;28;20210;-73
2021/07/10 01:39:44;;;;;;;8.02;4.15;;;17.80;99.90;;;;;;5093798;28;20213;-73
2021/07/10 01:42:11;;;;;;;7.82;4.00;;;17.80;99.90;;;;;;5092848;28;20205;-73
2021/07/10 01:44:39;;;;;;;4.15;3.53;;;17.80;99.90;;;;;;5093622;28;20202;-73
2021/07/10 01:47:07;;;;;;;6.07;3.97;;;17.70;99.90;;;;;;5092769;28;20201;-73
2021/07/10 01:49:35;;;;;;;7.38;4.03;;;17.70;99.90;;;;;;5078686;28;20306;-73
2021/07/10 01:52:02;;;;;;;8.60;3.60;;;17.80;99.90;;;;;;5093989;28;20278;-74
2021/07/10 01:54:29;;;;;;;5.20;2.95;;;17.70;99.90;;;;;;5092838;28;20255;-73
2021/07/10 01:56:57;;;;;;;4.22;3.63;;;17.70;99.90;;;;;;5093258;28;20258;-74
2021/07/10 01:59:24;;;;;;;3.78;2.88;;;17.70;99.90;;;;;;5092632;28;20681;-74
2021/07/10 02:01:52;;;;;;;5.47;3.95;;;17.70;99.90;;;;;;5092867;28;20247;-73
2021/07/10 02:04:21;;;;;;;8.85;4.22;;;17.60;99.90;;;;;;5092573;28;20212;-73
2021/07/10 02:06:49;;;;;;;5.25;3.25;;;17.60;99.90;;;;;;5093399;28;20217;-73
2021/07/10 02:09:16;;;;;;;9.25;4.05;;;17.50;99.90;;;;;;5092623;28;20237;-73
2021/07/10 02:11:45;;;;;;;4.22;3.83;;;17.40;99.90;;;;;;5064875;28;20206;-73
2021/07/10 02:14:14;;;;;;;4.93;3.63;;;17.40;99.90;;;;;;5092658;28;20262;-74
2021/07/10 02:16:41;;;;;;;4.57;3.78;;;17.40;99.90;;;;;;5092370;28;20288;-73
2021/07/10 02:19:08;;;;;;;4.78;3.30;;;17.40;99.90;;;;;;5081237;28;20210;-74
2021/07/10 02:21:35;;;;;;;5.65;3.53;;;17.40;99.90;;;;;;5090017;28;20201;-74
2021/07/10 02:24:03;;;;;;;4.13;3.53;;;17.40;99.90;;;;;;5083183;28;20624;-74
2021/07/10 02:26:30;;;;;;;5.85;3.20;;;17.40;99.90;;;;;;5088079;28;20257;-74
2021/07/10 02:28:57;;;;;;;4.95;3.58;;;17.40;99.90;;;;;;5092386;28;20645;-74
2021/07/10 02:31:26;;;;;;;3.88;3.17;;;17.40;99.90;;;;;;5092193;28;20217;-73
2021/07/10 02:33:53;;;;;;;3.92;3.00;;;17.40;99.90;;;;;;5092583;28;20726;-71
2021/07/10 02:36:20;;;;;;;8.52;3.28;;;17.40;99.90;;;;;;5092238;28;20205;-72
2021/07/10 02:38:47;;;;;;;3.88;3.28;;;17.30;99.90;;;;;;5092008;28;20201;-71
2021/07/10 02:41:14;;;;;;;3.65;3.03;;;17.30;99.90;;;;;;5091666;28;20213;-73
2021/07/10 02:43:41;;;;;;;4.13;3.72;;;17.30;99.90;;;;;;5092145;28;20209;-73
2021/07/10 02:46:08;;;;;;;4.47;3.38;;;17.40;99.90;;;;;;5091943;28;20206;-73
2021/07/10 02:48:37;;;;;;;5.57;3.47;;;17.40;99.90;;;;;;5092374;28;20237;-72
2021/07/10 02:51:04;;;;;;;5.53;3.72;;;17.30;99.90;;;;;;5092322;28;20206;-73
2021/07/10 02:53:31;;;;;;;4.45;3.67;;;17.30;99.90;;;;;;5092598;28;20220;-72
2021/07/10 02:55:58;;;;;;;4.05;3.70;;;17.30;99.90;;;;;;5091510;28;20263;-72
2021/07/10 02:58:24;;;;;;;8.32;4.97;;;17.30;99.90;;;;;;5091660;28;20209;-72
2021/07/10 03:00:51;;;;;;;5.10;4.47;;;17.20;99.90;;;;;;5090983;28;20201;-72
2021/07/10 03:03:18;;;;;;;10.80;5.88;;;17.10;99.90;;;;;;5084553;28;20618;-72
2021/07/10 03:05:47;;;;;;;8.43;6.90;;;17.20;99.90;;;;;;5084953;28;20206;-72
2021/07/10 03:08:14;;;;;;;11.77;6.25;;;17.10;99.90;;;;;;5091317;28;20233;-73
2021/07/10 03:10:43;;;;;;;9.35;5.72;;;17.20;99.90;;;;;;5091453;28;20205;-72
2021/07/10 03:13:11;;;;;;;5.70;4.78;;;17.10;99.90;;;;;;5091263;28;20263;-72
2021/07/10 03:15:38;;;;;;;5.28;4.38;;;17.00;99.90;;;;;;5091895;28;20205;-73
2021/07/10 03:18:05;;;;;;;8.18;4.88;;;16.90;99.90;;;;;;5091475;28;20205;-73
2021/07/10 03:20:32;;;;;;;4.78;3.70;;;17.00;99.90;;;;;;5092179;28;20209;-72
2021/07/10 03:23:01;;;;;;;5.03;3.97;;;17.00;99.90;;;;;;5091565;28;20624;-73
2021/07/10 03:25:28;;;;;;;4.90;4.20;;;17.00;99.90;;;;;;5090789;28;20218;-72
2021/07/10 03:27:57;;;;;;;4.38;2.95;;;16.90;99.90;;;;;;5091600;28;20286;-72
2021/07/10 03:30:25;;;;;;;6.38;3.35;;;17.00;99.90;;;;;;5090906;28;20224;-73
2021/07/10 03:32:52;;;;;;;4.25;3.72;;;17.10;99.90;;;;;;5091634;28;20209;-73
2021/07/10 03:35:20;;;;;;;4.20;3.67;;;17.10;99.90;;;;;;5090745;28;20227;-72
2021/07/10 03:37:48;;;;;;;5.55;3.63;;;17.00;99.90;;;;;;5091210;28;20251;-73
2021/07/10 03:40:19;;;;;;;3.35;2.95;;;17.10;99.90;;;;;;5090520;28;20258;-72
2021/07/10 03:42:46;;;;;;;4.50;4.10;;;17.10;99.90;;;;;;5091088;28;20205;-72
2021/07/10 03:45:14;;;;;;;3.47;3.22;;;17.20;99.90;;;;;;5090647;28;20201;-73
2021/07/10 03:47:41;;;;;;;4.00;3.55;;;17.10;99.90;;;;;;5090851;28;20624;-73
2021/07/10 03:50:10;;;;;;;5.75;3.88;;;17.00;99.90;;;;;;5090604;28;20671;-73
2021/07/10 03:52:37;;;;;;;5.53;3.97;;;17.00;99.90;;;;;;5090417;28;20201;-73
2021/07/10 03:55:06;;;;;;;5.43;3.47;;;17.00;99.90;;;;;;5091242;28;20201;-72
2021/07/10 03:57:38;;;;;;;8.57;3.88;;;17.00;99.90;;;;;;5090928;28;20685;-74
2021/07/10 04:00:09;;;;;;;3.55;3.03;;;16.90;99.90;;;;;;5090997;28;20224;-74
2021/07/10 04:02:36;;;;;;;4.10;3.53;;;16.80;99.90;;;;;;5090632;28;20205;-74
2021/07/10 04:05:04;;;;;;;6.57;3.38;;;16.80;99.90;;;;;;5091069;28;20626;-74
2021/07/10 04:07:32;;;;;;;4.43;3.75;;;16.80;99.90;;;;;;5091059;28;20210;-72
2021/07/10 04:10:00;;;;;;;7.10;4.30;;;16.70;99.90;;;;;;5091088;28;20669;-72
2021/07/10 04:12:27;;;;;;;5.95;4.00;;;16.70;99.90;;;;;;5090329;28;20762;-72
2021/07/10 04:14:59;;;;;;;8.43;3.53;;;16.80;99.90;;;;;;5090668;28;20201;-72
2021/07/10 04:17:27;;;;;;;4.03;3.33;;;16.70;99.90;;;;;;5090144;28;20213;-73
2021/07/10 04:19:54;;;;;;;3.10;2.78;;;16.70;99.90;;;;;;5090650;28;20614;-73
2021/07/10 04:22:21;;;;;;;4.13;3.60;;;16.70;99.90;;;;;;5090225;28;20207;-72
2021/07/10 04:24:48;;;;;;;7.88;3.55;;;16.70;99.90;;;;;;5090477;28;20217;-72
2021/07/10 04:27:15;;;;;;;5.10;3.25;;;16.70;99.90;;;;;;5090286;28;20217;-73
2021/07/10 04:29:44;;;;;;;5.55;3.22;;;16.70;99.90;;;;;;5090425;28;20228;-73
2021/07/10 04:32:12;;;;;;;4.00;3.60;;;16.70;99.90;;;;;;5090101;28;20241;-73
2021/07/10 04:34:39;;;;;;;3.80;3.17;;;16.60;99.90;;;;;;5090580;28;20213;-73
2021/07/10 04:37:07;;;;;;;6.03;3.70;;;16.70;99.90;;;;;;5089907;28;20201;-73
2021/07/10 04:39:34;;;;;;;5.22;3.78;;;16.70;99.90;;;;;;5090647;28;20631;-73
2021/07/10 04:42:01;;;;;;;4.65;4.20;;;16.70;99.90;;;;;;5090780;28;20201;-73
2021/07/10 04:44:28;;;;;;;8.18;3.45;;;16.70;99.90;;;;;;5090043;28;20206;-72
2021/07/10 04:46:55;;;;;;;5.82;3.67;;;16.70;99.90;;;;;;5078453;28;20275;-72
2021/07/10 04:49:24;;;;;;;5.18;4.05;;;16.70;99.90;;;;;;5088105;28;20225;-72
2021/07/10 04:51:51;;;;;;;3.75;3.45;;;16.70;99.90;;;;;;5090260;28;20730;-72
2021/07/10 04:54:18;;;;;;;3.95;3.53;;;16.80;99.90;;;;;;5089686;28;20260;-72
2021/07/10 04:56:45;;;;;;;4.25;3.85;;;16.70;99.90;;;;;;5090382;28;20213;-72
2021/07/10 04:59:12;;;;;;;4.25;3.72;;;16.80;99.90;;;;;;5089684;28;20206;-73
2021/07/10 05:01:39;;;;;;;4.40;4.00;;;16.80;99.90;;;;;;5090068;28;20213;-73
2021/07/10 05:04:06;;;;;;;5.13;3.85;;;16.80;99.90;;;;;;5090252;28;20255;-74
2021/07/10 05:06:34;;;;;;;4.53;3.72;;;16.80;99.90;;;;;;5090124;28;20210;-73
2021/07/10 05:09:01;;;;;;;5.82;3.10;;;16.90;99.90;;;;;;5090364;28;20324;-73
2021/07/10 05:11:28;;;;;;;8.43;4.57;;;16.90;99.90;;;;;;5089670;28;20251;-75
2021/07/10 05:13:55;;;;;;;3.95;3.45;;;16.90;99.90;;;;;;5090351;28;20210;-74
2021/07/10 05:16:22;;;;;;;6.80;4.10;;;17.00;99.90;;;;;;5089748;28;20206;-73
2021/07/10 05:18:49;;;;;;;3.92;3.45;;;17.10;99.90;;;;;;5090421;28;20713;-73
2021/07/10 05:21:16;;;;;;;5.70;4.07;;;17.10;99.90;;;;;;5089138;28;20625;-73
2021/07/10 05:23:44;;;;;;;4.63;4.18;;;17.20;99.90;;;;;;5091323;28;20209;-72
2021/07/10 05:26:11;;;;;;;7.55;3.45;;;17.30;99.90;;;;;;5093083;28;20213;-73
2021/07/10 05:28:38;;;;;;;6.10;3.65;;;17.30;99.90;;;;;;5079439;28;20267;-73
2021/07/10 05:31:05;;;;;;;4.57;3.60;;;17.30;99.90;;;;;;5093695;28;20258;-73
2021/07/10 05:33:32;;;;;;;7.40;4.78;;;17.30;99.90;;;;;;5089852;28;20726;-73
2021/07/10 05:35:59;;;;;;;4.53;4.10;;;17.40;99.90;;;;;;5083197;28;20213;-73
2021/07/10 05:38:27;;;;;;;5.07;3.88;;;17.40;99.90;;;;;;5093066;28;20254;-73
2021/07/10 05:40:55;;;;;;;5.57;3.88;;;17.50;99.90;;;;;;5093465;28;20292;-72
2021/07/10 05:43:23;;;;;;;9.85;4.57;;;17.60;99.90;;;;;;5093106;28;20628;-71
2021/07/10 05:45:51;;;;;;;7.07;4.28;;;17.70;99.90;;;;;;5093495;28;20208;-72
2021/07/10 05:48:18;;;;;;;5.32;4.20;;;17.70;99.90;;;;;;5092967;28;20296;-73
2021/07/10 05:50:45;;;;;;;4.30;3.90;;;17.80;99.90;;;;;;5093019;28;20229;-73
2021/07/10 05:53:12;;;;;;;5.35;4.00;;;17.80;99.90;;;;;;5092888;28;20258;-73
2021/07/10 05:55:40;;;;;;;4.32;3.92;;;17.70;99.90;;;;;;5093105;28;20213;-74
2021/07/10 05:58:08;;;;;;;6.35;3.75;;;17.70;99.90;;;;;;5064980;28;20255;-75
2021/07/10 06:00:35;;;;;;;4.15;3.75;;;17.90;99.90;;;;;;5093193;28;20209;-75
2021/07/10 06:03:03;;;;;;;5.22;3.88;;;18.00;99.90;;;;;;5093228;28;20202;-74
2021/07/10 06:05:30;;;;;;;4.70;3.78;;;18.10;99.90;;;;;;5093171;28;20275;-73
2021/07/10 06:07:57;;;;;;;4.53;3.72;;;18.10;99.90;;;;;;5092577;28;20205;-73
2021/07/10 06:10:24;;;;;;;4.35;3.58;;;18.10;99.90;;;;;;5092492;28;21108;-73
2021/07/10 06:12:51;;;;;;;5.07;4.00;;;18.20;99.90;;;;;;5092815;28;20201;-72
2021/07/10 06:15:20;;;;;;;6.95;3.97;;;18.10;99.90;;;;;;5092344;28;20255;-73
2021/07/10 06:17:47;;;;;;;4.38;3.47;;;18.10;99.90;;;;;;5077318;28;20263;-73
2021/07/10 06:20:16;;;;;;;6.25;4.28;;;18.20;99.90;;;;;;5078466;28;20271;-72
2021/07/10 06:22:43;;;;;;;3.90;3.50;;;18.40;99.90;;;;;;5082983;28;20274;-73
2021/07/10 06:25:11;;;;;;;5.38;4.07;;;18.30;99.90;;;;;;5088940;28;20217;-73
2021/07/10 06:27:38;;;;;;;5.07;3.58;;;18.30;99.90;;;;;;5076052;28;20630;-73
2021/07/10 06:30:07;;;;;;;5.03;4.32;;;18.70;99.90;;;;;;5073593;28;20303;-73
2021/07/10 06:32:36;;;;;;;4.65;3.53;;;18.50;99.90;;;;;;5078799;28;20734;-74
2021/07/10 06:35:04;;;;;;;5.47;3.80;;;18.70;99.90;;;;;;5080702;28;20271;-72
2021/07/10 06:37:31;;;;;;;5.10;3.45;;;18.90;99.90;;;;;;5088856;28;20217;-73
2021/07/10 06:39:58;;;;;;;3.85;3.47;;;19.10;99.90;;;;;;5079889;28;20205;-73
2021/07/10 06:42:25;;;;;;;4.45;4.05;;;19.20;99.90;;;;;;5088364;28;20213;-73
2021/07/10 06:44:53;;;;;;;4.38;3.30;;;19.20;99.90;;;;;;5086745;28;20624;-73
2021/07/10 06:47:21;;;;;;;5.00;4.35;;;19.50;99.90;;;;;;5082734;28;20266;-73
2021/07/10 06:49:49;;;;;;;3.33;2.97;;;19.40;99.90;;;;;;5075925;28;20304;-73
2021/07/10 06:52:16;;;;;;;4.32;3.35;;;19.40;99.90;;;;;;5068362;28;20617;-72
2021/07/10 06:54:43;;;;;;;4.80;3.70;;;19.50;99.90;;;;;;5064096;28;20719;-73
2021/07/10 06:57:10;;;;;;;5.18;3.90;;;19.70;99.90;;;;;;5071054;28;20210;-73
2021/07/10 06:59:37;;;;;;;5.35;3.28;;;19.80;99.90;;;;;;5071590;28;20202;-73
2021/07/10 07:02:05;;;;;;;6.70;3.95;;;20.00;99.90;;;;;;5070933;28;20207;-73
2021/07/10 07:04:32;;;;;;;5.22;3.38;;;20.10;99.90;;;;;;5071827;28;20210;-72
2021/07/10 07:07:00;;;;;;;3.20;2.78;;;20.10;99.90;;;;;;5071899;28;20214;-73
2021/07/10 07:09:27;;;;;;;4.20;3.50;;;20.20;99.90;;;;;;5071434;28;20221;-73
2021/07/10 07:11:54;;;;;;;4.50;3.47;;;20.10;99.90;;;;;;5074492;28;20675;-73
2021/07/10 07:14:21;;;;;;;4.43;3.53;;;20.20;99.90;;;;;;5070606;28;20617;-73
2021/07/10 07:16:48;;;;;;;3.65;2.83;;;20.40;99.90;;;;;;5074131;28;20624;-74
2021/07/10 07:19:15;;;;;;;4.97;4.40;;;20.50;99.90;;;;;;5074269;28;20283;-73
2021/07/10 07:21:42;;;;;;;5.68;3.92;;;20.60;99.90;;;;;;5081328;28;20201;-74
2021/07/10 07:24:10;;;;;;;3.83;3.42;;;20.70;99.90;;;;;;5086809;28;20677;-74
2021/07/10 07:26:37;;;;;;;4.22;3.83;;;20.90;99.90;;;;;;5074160;28;20244;-73
2021/07/10 07:29:05;;;;;;;4.03;3.40;;;20.90;99.90;;;;;;5070762;28;20622;-73
2021/07/10 07:31:32;;;;;;;5.57;4.22;;;21.10;99.90;;;;;;5070574;28;20241;-74
2021/07/10 07:34:00;;;;;;;4.90;3.67;;;21.20;99.90;;;;;;5072924;28;20288;-74
2021/07/10 07:36:27;;;;;;;3.72;3.22;;;21.60;99.90;;;;;;5070639;28;20264;-73
2021/07/10 07:38:54;;;;;;;5.65;3.17;;;22.00;99.90;;;;;;5073055;28;20209;-75
2021/07/10 07:41:22;;;;;;;5.43;3.70;;;22.30;99.90;;;;;;5073958;28;20268;-75
2021/07/10 07:43:49;;;;;;;3.83;3.53;;;22.50;99.90;;;;;;5075821;28;20198;-74
2021/07/10 07:46:16;;;;;;;26.52;4.90;;;22.60;99.90;;;;;;5072090;28;20672;-76
2021/07/10 07:48:43;;;;;;;3.33;3.03;;;22.80;99.90;;;;;;5070910;28;20208;-76
2021/07/10 07:51:12;;;;;;;4.15;3.30;;;23.20;99.90;;;;;;5069606;28;20278;-76
2021/07/10 07:53:39;;;;;;;6.85;3.20;;;23.50;99.90;;;;;;5069498;28;20210;-75
2021/07/10 07:56:06;;;;;;;4.10;3.65;;;23.40;99.90;;;;;;5072510;28;20206;-73
2021/07/10 07:58:34;;;;;;;5.25;3.53;;;23.30;99.90;;;;;;5072934;28;20202;-73
2021/07/10 08:01:01;;;;;;;4.05;3.00;;;23.30;99.90;;;;;;5080388;28;20209;-73
2021/07/10 08:03:28;;;;;;;4.90;3.50;;;23.30;99.90;;;;;;5076492;28;20205;-73
2021/07/10 08:05:55;;;;;;;3.67;2.92;;;23.60;99.90;;;;;;5074501;28;20265;-72
2021/07/10 08:08:22;;;;;;;3.90;3.40;;;24.10;99.90;;;;;;5074820;28;20206;-74
2021/07/10 08:10:49;;;;;;;4.13;3.80;;;24.60;99.90;;;;;;5071472;28;20276;-74
2021/07/10 08:13:16;;;;;;;4.63;3.65;;;25.10;99.90;;;;;;5076051;28;20262;-74
2021/07/10 08:15:45;;;;;;;3.92;3.00;;;25.40;99.90;;;;;;5070778;28;20271;-74
2021/07/10 08:18:12;;;;;;;6.63;3.85;;;26.40;99.90;;;;;;5078301;28;20264;-75
2021/07/10 08:20:39;;;;;;;5.32;2.95;;;26.20;99.90;;;;;;5084315;28;20202;-75
2021/07/10 08:23:07;;;;;;;4.22;3.20;;;26.00;99.90;;;;;;5081687;28;20672;-72
2021/07/10 08:25:34;;;;;;;4.65;2.88;;;25.60;99.90;;;;;;5070543;28;20217;-72
2021/07/10 08:28:01;;;;;;;8.45;3.95;;;25.40;99.90;;;;;;5070172;28;20248;-72
2021/07/10 08:30:28;;;;;;;3.35;3.05;;;26.10;99.90;;;;;;5069891;28;20351;-75
2021/07/10 08:32:57;;;;;;;3.85;2.78;;;25.60;99.90;;;;;;5069686;28;20984;-72
2021/07/10 08:35:24;;;;;;;2.92;2.53;;;25.20;99.90;;;;;;5068905;28;20209;-71
2021/07/10 08:37:51;;;;;;;3.40;2.22;;;25.20;99.90;;;;;;5065167;28;20213;-72
2021/07/10 08:40:20;;;;;;;3.97;2.72;;;25.00;99.90;;;;;;5077098;28;20255;-75
2021/07/10 08:42:47;;;;;;;4.13;3.35;;;24.80;99.90;;;;;;5077521;28;20197;-72
2021/07/10 08:45:15;;;;;;;6.80;3.38;;;24.90;99.90;;;;;;5075773;28;20631;-73
2021/07/10 08:47:44;;;;;;;3.70;2.75;;;25.00;99.90;;;;;;5072078;28;20252;-73
2021/07/10 08:50:14;;;;;;;3.65;2.95;;;25.20;99.90;;;;;;5070413;28;20272;-72
2021/07/10 08:52:41;;;;;;;2.85;2.55;;;25.20;99.90;;;;;;5069844;28;20213;-71
2021/07/10 08:55:10;;;;;;;3.38;2.65;;;25.00;99.90;;;;;;5060365;28;20206;-74
2021/07/10 08:57:37;;;;;;;3.95;2.90;;;24.70;99.90;;;;;;5067500;28;20202;-74
2021/07/10 09:00:09;;;;;;;2.85;2.65;;;24.40;99.90;;;;;;5076406;28;20669;-74
2021/07/10 09:02:36;;;;;;;6.45;2.88;;;24.00;99.90;;;;;;5074121;28;20293;-74
2021/07/10 09:05:04;;;;;;;4.00;3.38;;;24.10;99.90;;;;;;5079207;28;20262;-73
2021/07/10 09:07:33;;;;;;;4.13;3.58;;;24.10;99.90;;;;;;5087226;28;20251;-73
2021/07/10 09:10:00;;;;;;;3.33;2.90;;;24.20;99.90;;;;;;5086170;28;20252;-73
2021/07/10 09:12:29;;;;;;;5.00;3.05;;;24.60;99.90;;;;;;5075636;28;20202;-72
2021/07/10 09:14:56;;;;;;;3.72;3.08;;;25.00;99.90;;;;;;5068257;28;20578;-71
2021/07/10 09:17:25;;;;;;;3.00;2.67;;;25.60;99.90;;;;;;5074292;28;20256;-70
2021/07/10 09:19:54;;;;;;;3.60;3.17;;;25.40;99.90;;;;;;5082052;28;20288;-72
2021/07/10 09:22:27;;;;;;;5.70;3.28;;;25.10;99.90;;;;;;5075294;28;20202;-72
2021/07/10 09:24:57;;;;;;;4.05;2.92;;;25.40;99.90;;;;;;5082073;28;20217;-73
2021/07/10 09:27:24;;;;;;;3.80;3.10;;;25.40;99.90;;;;;;5077771;28;20275;-72
2021/07/10 09:29:52;;;;;;;4.78;2.97;;;25.30;99.90;;;;;;5083793;28;20233;-71
2021/07/10 09:32:20;;;;;;;3.97;3.25;;;25.70;99.90;;;;;;5076626;28;20669;-72
2021/07/10 09:34:49;;;;;;;7.00;3.55;;;26.20;99.90;;;;;;5075400;28;20210;-72
2021/07/10 09:37:19;;;;;;;4.07;2.90;;;26.60;99.90;;;;;;5076315;28;20208;-72
2021/07/10 09:39:54;;;;;;;4.97;2.90;;;26.80;99.90;;;;;;5073124;28;20259;-73
2021/07/10 09:42:27;;;;;;;3.35;2.42;;;27.00;99.90;;;;;;5069456;28;20262;-72
2021/07/10 09:44:55;;;;;;;4.53;3.38;;;26.50;99.90;;;;;;5079029;28;20559;-73
2021/07/10 09:47:26;;;;;;;4.30;2.85;;;26.60;99.90;;;;;;5076909;28;20585;-72
2021/07/10 09:49:54;;;;;;;4.45;3.50;;;27.30;99.90;;;;;;5082812;28;20234;-72
2021/07/10 09:52:22;;;;;;;4.15;3.38;;;28.80;99.90;;;;;;5073695;28;20244;-72
2021/07/10 09:54:51;;;;;;;5.20;3.40;;;31.20;99.90;;;;;;5079734;28;20229;-73
2021/07/10 09:57:20;;;;;;;3.67;3.38;;;33.90;99.90;;;;;;5084119;28;20269;-73
2021/07/10 09:59:52;;;;;;;5.07;3.58;;;35.30;99.90;;;;;;5082361;28;20217;-72
2021/07/10 10:02:29;;;;;;;3.50;3.00;;;36.00;99.90;;;;;;5072301;28;20201;-73
2021/07/10 10:05:02;;;;;;;5.10;3.22;;;36.50;99.90;;;;;;5066740;28;20192;-72
2021/07/10 10:07:29;;;;;;;3.33;3.03;;;37.20;99.90;;;;;;5071572;28;20198;-71
2021/07/10 10:09:58;;;;;;;3.30;3.00;;;37.20;99.90;;;;;;5080523;28;20201;-71
2021/07/10 10:12:26;;;;;;;3.60;3.30;;;37.40;99.90;;;;;;5083786;28;20602;-73
2021/07/10 10:14:56;;;;;;;3.35;3.03;;;37.40;99.90;;;;;;5081509;28;20263;-70
2021/07/10 10:17:25;;;;;;;4.10;3.80;;;37.00;99.90;;;;;;5089234;28;20370;-72
2021/07/10 10:19:53;;;;;;;3.40;3.10;;;37.50;99.90;;;;;;5074170;28;20205;-73
2021/07/10 10:22:21;;;;;;;3.65;3.00;;;37.90;99.90;;;;;;5072628;28;20612;-73
2021/07/10 10:24:50;;;;;;;4.40;4.10;;;37.30;99.90;;;;;;5078212;28;20212;-72
2021/07/10 10:27:18;;;;;;;5.88;4.22;;;37.10;99.90;;;;;;5082820;28;20201;-72
2021/07/10 10:29:46;;;;;;;6.72;3.88;;;36.80;99.90;;;;;;5073961;28;20615;-75
2021/07/10 10:32:14;;;;;;;3.97;3.58;;;36.90;99.90;;;;;;5077609;28;20233;-74
2021/07/10 10:34:41;;;;;;;4.78;4.38;;;37.90;99.90;;;;;;5073286;28;20213;-75
2021/07/10 10:37:10;;;;;;;3.78;3.47;;;38.20;99.90;;;;;;5072746;28;20290;-75
2021/07/10 10:39:39;;;;;;;4.72;3.28;;;37.10;99.90;;;;;;5068990;28;20205;-75
2021/07/10 10:42:10;;;;;;;3.88;3.58;;;31.30;99.90;;;;;;5074061;28;20206;-74
2021/07/10 10:44:40;;;;;;;4.13;3.83;;;28.40;99.90;;;;;;5070852;28;20205;-75
2021/07/10 10:47:09;;;;;;;3.55;3.30;;;27.40;99.90;;;;;;5085437;28;20270;-74
2021/07/10 10:49:46;;;;;;;3.65;3.35;;;27.10;99.90;;;;;;5060512;28;20288;-74
2021/07/10 10:52:29;;;;;;;9.05;4.20;;;27.10;99.90;;;;;;5085481;28;20275;-74
2021/07/10 10:54:58;;;;;;;8.20;4.38;;;27.10;99.90;;;;;;5067425;28;20258;-73
2021/07/10 10:57:37;;;;;;;4.50;4.10;;;26.90;99.90;;;;;;5091628;28;20263;-73
2021/07/10 11:00:11;;;;;;;5.93;4.43;;;26.70;99.90;;;;;;5081537;28;20202;-74
2021/07/10 11:03:01;;;;;;;4.03;3.63;;;26.70;99.90;;;;;;5087194;28;20266;-74
2021/07/10 11:05:53;;;;;;;4.60;3.70;;;26.70;99.90;;;;;;5082571;28;20583;-75
2021/07/10 11:08:45;;;;;;;4.78;4.35;;;27.00;99.90;;;;;;5076188;28;20209;-74
2021/07/10 11:11:35;;;;;;;3.92;3.63;;;27.00;99.90;;;;;;5082423;28;20230;-74
2021/07/10 11:14:21;;;;;;;5.32;3.60;;;27.20;99.90;;;;;;5065874;28;20203;-74
2021/07/10 11:17:07;;;;;;;4.72;3.53;;;27.00;99.90;;;;;;5072415;28;20249;-75
2021/07/10 11:19:57;;;;;;;3.88;3.58;;;26.70;99.90;;;;;;5072514;28;20260;-75
2021/07/10 11:22:57;;;;;;;4.65;3.85;;;27.10;99.90;;;;;;5054517;28;20567;-75
2021/07/10 11:26:06;;;;;;;5.40;3.25;;;27.30;99.90;;;;;;5063614;28;20222;-75
2021/07/10 11:28:40;;;;;;;4.80;4.22;;;27.20;99.90;;;;;;5051378;28;20730;-74
2021/07/10 11:31:10;;;;;;;4.43;3.17;;;27.30;99.90;;;;;;5062424;28;20237;-75
2021/07/10 11:34:06;;;;;;;6.80;4.15;;;27.20;99.90;;;;;;5070656;28;20198;-75
2021/07/10 11:36:55;;;;;;;6.97;4.45;;;26.70;99.90;;;;;;5071214;28;20224;-74
2021/07/10 11:39:44;;;;;;;4.07;3.72;;;27.10;99.90;;;;;;5070659;28;20206;-73
2021/07/10 11:42:32;;;;;;;4.72;4.18;;;26.90;99.90;;;;;;5070188;28;20747;-74
2021/07/10 11:45:13;;;;;;;3.70;3.45;;;26.90;99.90;;;;;;5070129;28;20214;-74
2021/07/10 11:47:42;;;;;;;3.65;3.08;;;27.40;99.90;;;;;;5075253;28;20237;-74
2021/07/10 11:50:11;;;;;;;5.75;3.63;;;27.40;99.90;;;;;;5070049;28;20206;-76
2021/07/10 11:52:38;;;;;;;4.20;3.90;;;27.80;99.90;;;;;;5070133;28;20234;-74
2021/07/10 11:55:09;;;;;;;4.68;3.28;;;28.00;99.90;;;;;;5070803;28;20260;-74
2021/07/10 11:57:38;;;;;;;4.53;4.13;;;27.50;99.90;;;;;;5070727;28;20205;-74
2021/07/10 12:00:06;;;;;;;4.28;3.88;;;27.20;99.90;;;;;;5070529;28;20198;-74
2021/07/10 12:02:34;;;;;;;4.18;3.58;;;27.60;99.90;;;;;;5070634;28;20218;-74
2021/07/10 12:05:02;;;;;;;3.67;3.40;;;28.00;99.90;;;;;;5071005;28;20623;-74
2021/07/10 12:07:29;;;;;;;4.63;4.22;;;28.50;99.90;;;;;;5070109;28;20226;-74
2021/07/10 12:09:57;;;;;;;5.28;4.40;;;29.00;99.90;;;;;;5070586;28;20248;-74
2021/07/10 12:12:25;;;;;;;8.43;4.60;;;28.70;99.90;;;;;;5069854;28;20303;-74
2021/07/10 12:14:53;;;;;;;4.75;4.05;;;27.90;99.90;;;;;;5070376;28;20206;-75
2021/07/10 12:17:20;;;;;;;4.45;4.05;;;27.50;99.90;;;;;;5070428;28;20206;-74
2021/07/10 12:19:48;;;;;;;4.45;4.05;;;27.40;99.90;;;;;;5082126;28;20660;-75
2021/07/10 12:22:17;;;;;;;4.55;4.15;;;27.30;99.90;;;;;;5087789;28;20270;-75
2021/07/10 12:24:44;;;;;;;4.35;3.95;;;27.70;99.90;;;;;;5077354;28;20260;-71
2021/07/10 12:27:13;;;;;;;3.72;3.40;;;27.70;99.90;;;;;;5087707;28;20266;-74
2021/07/10 12:29:50;;;;;;;6.85;3.97;;;27.50;99.90;;;;;;5087220;28;20251;-73
2021/07/10 12:32:18;;;;;;;4.78;4.07;;;27.70;99.90;;;;;;5087551;28;20216;-72
2021/07/10 12:34:49;;;;;;;4.13;3.83;;;27.90;99.90;;;;;;5088197;28;20197;-72
2021/07/10 12:37:22;;;;;;;4.53;4.15;;;27.90;99.90;;;;;;5090281;28;20213;-73
2021/07/10 12:39:49;;;;;;;3.83;3.50;;;27.90;99.90;;;;;;5092025;28;20289;-72
2021/07/10 12:42:16;;;;;;;4.88;3.80;;;27.60;99.90;;;;;;5091514;28;20244;-72
2021/07/10 12:44:45;;;;;;;3.53;3.22;;;27.60;99.90;;;;;;5095480;28;20205;-73
2021/07/10 12:47:15;;;;;;;5.55;3.63;;;27.60;99.90;;;;;;5091414;28;20201;-73
2021/07/10 12:49:43;;;;;;;4.55;4.15;;;27.10;99.90;;;;;;5093259;28;20288;-72
2021/07/10 12:52:22;;;;;;;5.47;4.05;;;27.10;99.90;;;;;;5094283;28;20640;-72
2021/07/10 12:54:53;;;;;;;6.38;3.85;;;27.50;99.90;;;;;;5095415;28;20201;-72